Time;durP1;ratioP1;P1;durP2;ratioP2;P2;SDS_P1;SDS_P2;PMS_P1;PMS_P2;Temp;Humidity;BMP_temperature;BMP_pressure;BME280_temperature;BME280_humidity;BME280_pressure;Samples;Min_cycle;Max_cycle;Signal;HPM_P1;HPM_P2
2024/02/06 00:01:50;;;;;;;13.10;6.78;;;;;;;;;;5030028;28;20399;-76
2024/02/06 00:04:16;;;;;;;15.02;7.15;;;;;;;;;;5030480;28;20197;-76
2024/02/06 00:06:42;;;;;;;16.65;6.82;;;;;;;;;;5036577;28;20532;-76
2024/02/06 00:09:08;;;;;;;11.57;6.70;;;;;;;;;;5032288;28;20205;-76
2024/02/06 00:11:34;;;;;;;17.33;6.20;;;;;;;;;;5021689;28;20197;-75
2024/02/06 00:13:59;;;;;;;16.13;6.70;;;;;;;;;;5042183;28;20182;-76
2024/02/06 00:16:25;;;;;;;13.13;6.18;;;;;;;;;;5041665;28;20193;-76
2024/02/06 00:18:50;;;;;;;13.55;6.82;;;;;;;;;;5031749;28;20267;-76
2024/02/06 00:21:16;;;;;;;15.43;6.35;;;;;;;;;;5044818;28;20568;-76
2024/02/06 00:23:41;;;;;;;13.68;6.57;;;;;;;;;;5036383;28;20567;-76
2024/02/06 00:26:07;;;;;;;14.85;6.55;;;;;;;;;;5028164;28;20206;-76
2024/02/06 00:28:33;;;;;;;16.17;5.90;;;;;;;;;;5041530;28;20189;-75
2024/02/06 00:30:58;;;;;;;15.52;6.40;;;;;;;;;;5051931;28;20174;-76
2024/02/06 00:33:24;;;;;;;13.20;6.05;;;;;;;;;;5040755;28;20186;-75
2024/02/06 00:35:49;;;;;;;13.38;5.90;;;;;;;;;;5041485;28;20185;-74
2024/02/06 00:38:14;;;;;;;18.73;6.72;;;;;;;;;;5041286;28;20189;-75
2024/02/06 00:40:40;;;;;;;16.70;6.22;;;;;;;;;;5044954;28;20697;-74
2024/02/06 00:43:05;;;;;;;16.67;6.10;;;;;;;;;;5031241;28;20294;-76
2024/02/06 00:45:31;;;;;;;11.85;6.45;;;;;;;;;;5045723;28;20194;-75
2024/02/06 00:47:56;;;;;;;11.95;5.90;;;;;;;;;;5045593;28;20185;-76
2024/02/06 00:50:22;;;;;;;11.35;5.72;;;;;;;;;;5030066;28;20901;-76
2024/02/06 00:52:47;;;;;;;14.20;5.97;;;;;;;;;;5033198;28;20727;-75
2024/02/06 00:55:13;;;;;;;12.50;5.68;;;;;;;;;;5032389;28;20198;-76
2024/02/06 00:57:39;;;;;;;12.45;5.60;;;;;;;;;;5034519;28;20493;-76
2024/02/06 01:00:07;;;;;;;20.00;6.00;;;;;;;;;;5037750;28;20259;-76
2024/02/06 01:02:33;;;;;;;14.00;5.55;;;;;;;;;;5048471;28;20194;-76
2024/02/06 01:04:58;;;;;;;15.63;5.82;;;;;;;;;;5042167;28;20296;-75
2024/02/06 01:07:25;;;;;;;15.52;5.90;;;;;;;;;;5045207;28;20193;-74
2024/02/06 01:09:51;;;;;;;12.43;5.60;;;;;;;;;;5042846;28;20217;-75
2024/02/06 01:12:16;;;;;;;13.02;5.88;;;;;;;;;;5037144;28;20236;-75
2024/02/06 01:14:41;;;;;;;14.90;5.93;;;;;;;;;;5033000;28;20189;-74
2024/02/06 01:17:07;;;;;;;12.25;5.95;;;;;;;;;;5038528;28;20286;-75
2024/02/06 01:19:32;;;;;;;13.60;5.63;;;;;;;;;;5024624;28;20217;-75
2024/02/06 01:21:58;;;;;;;14.50;5.68;;;;;;;;;;5018569;28;20532;-74
2024/02/06 01:24:23;;;;;;;15.65;6.70;;;;;;;;;;5034462;28;20255;-75
2024/02/06 01:26:49;;;;;;;14.57;5.45;;;;;;;;;;5034827;28;20285;-75
2024/02/06 01:29:15;;;;;;;16.27;5.90;;;;;;;;;;5044439;28;20181;-74
2024/02/06 01:31:41;;;;;;;13.90;6.28;;;;;;;;;;5042046;28;20193;-74
2024/02/06 01:34:07;;;;;;;13.38;5.82;;;;;;;;;;5042783;28;20288;-74
2024/02/06 01:36:36;;;;;;;11.55;6.05;;;;;;;;;;5048196;28;20268;-74
2024/02/06 01:39:01;;;;;;;16.17;5.80;;;;;;;;;;5037862;28;20224;-74
2024/02/06 01:41:27;;;;;;;17.35;6.30;;;;;;;;;;5026932;28;20555;-73
2024/02/06 01:43:53;;;;;;;17.73;6.28;;;;;;;;;;5048552;28;20198;-74
2024/02/06 01:46:19;;;;;;;11.93;6.07;;;;;;;;;;5032807;28;20193;-74
2024/02/06 01:48:46;;;;;;;14.15;6.38;;;;;;;;;;5041409;28;20247;-74
2024/02/06 01:51:13;;;;;;;11.43;5.82;;;;;;;;;;5034330;28;20194;-74
2024/02/06 01:53:40;;;;;;;20.80;6.45;;;;;;;;;;5021216;28;20251;-74
2024/02/06 01:56:06;;;;;;;11.93;6.18;;;;;;;;;;5034496;28;20190;-74
2024/02/06 01:58:32;;;;;;;16.63;6.55;;;;;;;;;;5035182;28;20615;-74
2024/02/06 02:00:58;;;;;;;22.95;6.40;;;;;;;;;;5028421;28;20475;-74
2024/02/06 02:03:23;;;;;;;13.52;5.97;;;;;;;;;;5034784;28;20551;-75
2024/02/06 02:05:49;;;;;;;15.07;6.15;;;;;;;;;;5040459;28;20193;-74
2024/02/06 02:08:16;;;;;;;19.70;6.45;;;;;;;;;;5034772;28;20190;-73
2024/02/06 02:10:42;;;;;;;14.82;5.90;;;;;;;;;;5043039;28;20507;-75
2024/02/06 02:13:07;;;;;;;13.63;6.05;;;;;;;;;;5020298;28;20192;-75
2024/02/06 02:15:33;;;;;;;19.13;6.20;;;;;;;;;;5031341;28;20657;-75
2024/02/06 02:17:58;;;;;;;15.55;6.15;;;;;;;;;;5045916;28;20233;-75
2024/02/06 02:20:24;;;;;;;12.50;5.88;;;;;;;;;;5041893;28;20209;-75
2024/02/06 02:22:49;;;;;;;20.02;5.88;;;;;;;;;;5031990;28;20225;-74
2024/02/06 02:25:15;;;;;;;18.08;6.28;;;;;;;;;;5032722;28;20271;-76
2024/02/06 02:27:41;;;;;;;12.68;5.40;;;;;;;;;;5037657;28;20198;-74
2024/02/06 02:30:07;;;;;;;13.52;6.20;;;;;;;;;;5034054;28;20182;-75
2024/02/06 02:32:33;;;;;;;14.23;6.30;;;;;;;;;;5036306;28;20294;-74
2024/02/06 02:34:59;;;;;;;18.08;8.25;;;;;;;;;;5045363;28;20175;-75
2024/02/06 02:37:24;;;;;;;13.05;6.65;;;;;;;;;;5039478;28;20343;-75
2024/02/06 02:39:50;;;;;;;18.17;6.88;;;;;;;;;;5033508;28;20287;-75
2024/02/06 02:42:16;;;;;;;17.92;6.18;;;;;;;;;;5034786;28;20560;-74
2024/02/06 02:44:41;;;;;;;14.60;6.30;;;;;;;;;;5048066;28;20220;-74
2024/02/06 02:47:07;;;;;;;17.13;6.18;;;;;;;;;;5038942;28;20186;-74
2024/02/06 02:49:32;;;;;;;18.33;6.07;;;;;;;;;;5032551;28;20189;-75
2024/02/06 02:51:58;;;;;;;16.00;6.55;;;;;;;;;;5046641;28;20182;-75
2024/02/06 02:54:27;;;;;;;14.90;6.20;;;;;;;;;;5033313;28;20188;-76
2024/02/06 02:56:54;;;;;;;18.42;6.13;;;;;;;;;;5028528;28;20189;-75
2024/02/06 02:59:19;;;;;;;15.25;5.93;;;;;;;;;;5027993;28;20228;-75
2024/02/06 03:01:44;;;;;;;16.52;5.80;;;;;;;;;;5043208;28;20182;-74
2024/02/06 03:04:11;;;;;;;11.48;5.57;;;;;;;;;;5037503;28;20194;-75
2024/02/06 03:06:37;;;;;;;19.83;5.72;;;;;;;;;;5040032;28;20564;-75
2024/02/06 03:09:03;;;;;;;19.23;5.75;;;;;;;;;;5040693;28;20293;-75
2024/02/06 03:11:29;;;;;;;18.50;5.55;;;;;;;;;;5047388;28;20673;-75
2024/02/06 03:13:55;;;;;;;16.55;5.20;;;;;;;;;;5034904;28;20186;-75
2024/02/06 03:16:20;;;;;;;20.42;6.95;;;;;;;;;;5037010;28;20460;-75
2024/02/06 03:18:46;;;;;;;21.20;5.50;;;;;;;;;;5030914;28;20233;-76
2024/02/06 03:21:11;;;;;;;11.05;5.22;;;;;;;;;;5030343;28;20209;-75
2024/02/06 03:23:36;;;;;;;18.58;4.90;;;;;;;;;;5050994;28;20570;-74
2024/02/06 03:26:02;;;;;;;16.58;5.20;;;;;;;;;;5032832;28;20665;-75
2024/02/06 03:28:27;;;;;;;18.65;5.22;;;;;;;;;;5038473;28;20203;-76
2024/02/06 03:30:53;;;;;;;21.60;5.30;;;;;;;;;;5040163;28;20186;-75
2024/02/06 03:33:18;;;;;;;17.60;5.30;;;;;;;;;;5046399;28;20192;-74
2024/02/06 03:35:44;;;;;;;16.73;4.82;;;;;;;;;;5032373;28;20189;-75
2024/02/06 03:38:09;;;;;;;16.02;5.10;;;;;;;;;;5035607;28;20186;-75
2024/02/06 03:40:35;;;;;;;16.90;5.13;;;;;;;;;;5029643;28;20296;-75
2024/02/06 03:43:00;;;;;;;13.43;4.95;;;;;;;;;;5034178;28;20284;-75
2024/02/06 03:45:26;;;;;;;19.10;5.55;;;;;;;;;;5036944;28;20668;-76
2024/02/06 03:47:51;;;;;;;13.77;4.63;;;;;;;;;;5039994;28;20190;-75
2024/02/06 03:50:17;;;;;;;15.40;4.40;;;;;;;;;;5035861;28;20239;-75
2024/02/06 03:52:42;;;;;;;20.13;4.18;;;;;;;;;;5034794;28;20677;-76
2024/02/06 03:55:08;;;;;;;18.08;4.55;;;;;;;;;;5040881;28;20190;-75
2024/02/06 03:57:34;;;;;;;15.63;4.25;;;;;;;;;;5027943;28;20208;-75
2024/02/06 03:59:59;;;;;;;15.80;5.00;;;;;;;;;;5051585;28;20545;-74
2024/02/06 04:02:25;;;;;;;19.17;4.63;;;;;;;;;;5031457;28;20204;-75
2024/02/06 04:04:50;;;;;;;15.65;3.97;;;;;;;;;;5047650;28;20200;-76
2024/02/06 04:07:16;;;;;;;11.07;3.75;;;;;;;;;;5036346;28;20281;-75
2024/02/06 04:09:41;;;;;;;18.20;4.68;;;;;;;;;;5025968;28;20603;-76
2024/02/06 04:12:07;;;;;;;13.43;4.05;;;;;;;;;;5044826;28;20197;-76
2024/02/06 04:14:33;;;;;;;14.60;4.45;;;;;;;;;;5060446;28;20211;-75
2024/02/06 04:16:58;;;;;;;17.50;4.60;;;;;;;;;;5050533;28;20191;-75
2024/02/06 04:19:24;;;;;;;17.67;4.95;;;;;;;;;;5031767;28;20763;-75
2024/02/06 04:21:50;;;;;;;21.02;5.10;;;;;;;;;;5038665;28;20189;-75
2024/02/06 04:24:16;;;;;;;19.55;4.70;;;;;;;;;;5040889;28;20194;-75
2024/02/06 04:26:41;;;;;;;15.52;5.00;;;;;;;;;;5040456;28;20271;-76
2024/02/06 04:29:07;;;;;;;15.77;4.70;;;;;;;;;;5048110;28;20190;-74
2024/02/06 04:31:32;;;;;;;20.80;4.50;;;;;;;;;;5041847;28;20217;-75
2024/02/06 04:33:58;;;;;;;23.00;5.05;;;;;;;;;;5037443;28;20396;-75
2024/02/06 04:36:23;;;;;;;20.02;4.32;;;;;;;;;;5045795;28;20671;-77
2024/02/06 04:38:49;;;;;;;21.08;5.55;;;;;;;;;;5037857;28;20261;-76
2024/02/06 04:41:15;;;;;;;14.98;4.97;;;;;;;;;;5029652;28;20677;-76
2024/02/06 04:43:41;;;;;;;20.20;4.75;;;;;;;;;;5043292;28;20186;-76
2024/02/06 04:46:07;;;;;;;24.42;5.38;;;;;;;;;;5047976;28;20189;-76
2024/02/06 04:48:32;;;;;;;17.13;4.82;;;;;;;;;;5040256;28;20198;-76
2024/02/06 04:50:58;;;;;;;14.65;5.20;;;;;;;;;;5045034;28;20264;-76
2024/02/06 04:53:24;;;;;;;13.85;5.10;;;;;;;;;;5030966;28;20190;-76
2024/02/06 04:55:49;;;;;;;20.52;5.57;;;;;;;;;;5044475;28;20201;-76
2024/02/06 04:58:15;;;;;;;17.58;5.68;;;;;;;;;;5042644;28;20235;-76
2024/02/06 05:00:40;;;;;;;16.83;5.97;;;;;;;;;;5037120;28;20564;-78
2024/02/06 05:03:05;;;;;;;15.20;5.45;;;;;;;;;;5044615;28;20208;-76
2024/02/06 05:05:31;;;;;;;20.70;6.30;;;;;;;;;;5049042;28;20276;-76
2024/02/06 05:07:56;;;;;;;18.15;6.28;;;;;;;;;;5038768;28;20213;-77
2024/02/06 05:10:22;;;;;;;18.65;6.05;;;;;;;;;;5045978;28;20643;-77
2024/02/06 05:12:47;;;;;;;20.30;6.68;;;;;;;;;;5045418;28;20200;-77
2024/02/06 05:15:14;;;;;;;29.50;7.25;;;;;;;;;;5045049;28;20216;-76
2024/02/06 05:17:41;;;;;;;21.50;6.65;;;;;;;;;;5036991;28;20234;-77
2024/02/06 05:20:08;;;;;;;20.38;7.03;;;;;;;;;;5043556;28;20210;-77
2024/02/06 05:22:37;;;;;;;17.63;6.55;;;;;;;;;;5033897;28;20222;-76
2024/02/06 05:25:03;;;;;;;15.55;6.63;;;;;;;;;;5046028;28;20683;-76
2024/02/06 05:27:28;;;;;;;19.42;6.60;;;;;;;;;;5035097;28;20194;-76
2024/02/06 05:29:54;;;;;;;16.23;6.72;;;;;;;;;;5042414;28;20191;-76
2024/02/06 05:32:19;;;;;;;20.42;6.47;;;;;;;;;;5040132;28;20194;-76
2024/02/06 05:34:45;;;;;;;19.48;7.18;;;;;;;;;;5038646;28;20276;-76
2024/02/06 05:37:10;;;;;;;27.48;7.00;;;;;;;;;;5047778;28;20192;-77
2024/02/06 05:39:36;;;;;;;21.52;6.30;;;;;;;;;;5045380;28;20206;-76
2024/02/06 05:42:02;;;;;;;20.23;6.28;;;;;;;;;;5030937;28;20669;-77
2024/02/06 05:44:28;;;;;;;22.88;6.78;;;;;;;;;;5040471;28;20193;-76
2024/02/06 05:46:53;;;;;;;19.58;6.32;;;;;;;;;;5040989;28;20205;-76
2024/02/06 05:49:18;;;;;;;23.92;6.70;;;;;;;;;;5041810;28;20193;-77
2024/02/06 05:51:44;;;;;;;18.30;7.78;;;;;;;;;;5037099;28;20182;-76
2024/02/06 05:54:09;;;;;;;18.40;6.57;;;;;;;;;;5037002;28;20279;-76
2024/02/06 05:56:36;;;;;;;22.67;6.97;;;;;;;;;;5035953;28;20269;-76
2024/02/06 05:59:02;;;;;;;16.80;7.28;;;;;;;;;;5030441;28;20772;-76
2024/02/06 06:01:28;;;;;;;14.52;7.18;;;;;;;;;;5035568;28;20240;-76
2024/02/06 06:03:53;;;;;;;26.27;8.68;;;;;;;;;;5018706;28;20308;-75
2024/02/06 06:06:19;;;;;;;22.42;8.60;;;;;;;;;;5045928;28;20185;-77
2024/02/06 06:08:44;;;;;;;19.27;8.60;;;;;;;;;;5022385;28;20240;-78
2024/02/06 06:11:09;;;;;;;19.02;8.55;;;;;;;;;;5037688;28;20183;-76
2024/02/06 06:13:35;;;;;;;20.08;8.82;;;;;;;;;;5026375;28;20325;-78
2024/02/06 06:16:01;;;;;;;21.38;10.10;;;;;;;;;;5041591;28;20186;-76
2024/02/06 06:18:26;;;;;;;26.40;10.50;;;;;;;;;;5042459;28;20315;-77
2024/02/06 06:20:51;;;;;;;18.25;10.52;;;;;;;;;;5021156;28;20232;-77
2024/02/06 06:23:17;;;;;;;21.85;10.50;;;;;;;;;;5037101;28;20235;-77
2024/02/06 06:25:42;;;;;;;22.58;10.43;;;;;;;;;;5038554;28;20275;-77
2024/02/06 06:28:08;;;;;;;22.45;10.23;;;;;;;;;;5043689;28;20369;-77
2024/02/06 06:30:33;;;;;;;20.00;10.43;;;;;;;;;;5034389;28;20213;-76
2024/02/06 06:32:59;;;;;;;25.25;10.55;;;;;;;;;;5033726;28;20181;-78
2024/02/06 06:35:24;;;;;;;22.20;11.07;;;;;;;;;;5043480;28;20225;-79
2024/02/06 06:37:50;;;;;;;19.65;10.45;;;;;;;;;;5045113;28;20661;-78
2024/02/06 06:40:15;;;;;;;23.00;10.98;;;;;;;;;;5038323;28;20309;-77
2024/02/06 06:42:41;;;;;;;20.50;11.35;;;;;;;;;;5027201;28;20190;-78
2024/02/06 06:45:08;;;;;;;22.95;11.20;;;;;;;;;;5033125;28;20273;-78
2024/02/06 06:47:33;;;;;;;17.23;10.27;;;;;;;;;;5037263;28;20189;-78
2024/02/06 06:49:59;;;;;;;21.08;10.80;;;;;;;;;;5035380;28;20532;-79
2024/02/06 06:52:25;;;;;;;21.58;9.75;;;;;;;;;;5014005;28;20197;-77
2024/02/06 06:54:50;;;;;;;20.58;9.80;;;;;;;;;;5026415;28;20197;-76
2024/02/06 06:57:16;;;;;;;25.35;10.60;;;;;;;;;;5034582;28;20197;-76
2024/02/06 06:59:41;;;;;;;18.30;10.05;;;;;;;;;;5033021;28;20308;-75
2024/02/06 07:02:06;;;;;;;24.63;9.90;;;;;;;;;;5022891;28;20189;-75
2024/02/06 07:04:32;;;;;;;23.75;10.00;;;;;;;;;;5042315;28;20598;-74
2024/02/06 07:06:58;;;;;;;24.08;9.57;;;;;;;;;;5044185;28;20235;-75
2024/02/06 07:09:25;;;;;;;24.58;9.77;;;;;;;;;;5039345;28;20192;-74
2024/02/06 07:11:51;;;;;;;21.70;9.35;;;;;;;;;;5024508;28;20247;-74
2024/02/06 07:14:17;;;;;;;22.98;9.43;;;;;;;;;;5027416;28;20281;-75
2024/02/06 07:16:42;;;;;;;24.85;9.48;;;;;;;;;;5041160;28;20518;-74
2024/02/06 07:19:08;;;;;;;20.80;8.98;;;;;;;;;;5035535;28;20209;-75
2024/02/06 07:21:33;;;;;;;18.05;9.00;;;;;;;;;;5028803;28;20247;-77
2024/02/06 07:23:59;;;;;;;24.23;9.23;;;;;;;;;;5036787;28;20560;-75
2024/02/06 07:26:25;;;;;;;16.15;8.05;;;;;;;;;;5034145;28;20197;-75
2024/02/06 07:28:51;;;;;;;27.73;8.82;;;;;;;;;;5038610;28;20595;-75
2024/02/06 07:31:17;;;;;;;16.60;7.95;;;;;;;;;;5036916;28;20186;-76
2024/02/06 07:33:42;;;;;;;25.15;8.95;;;;;;;;;;5050720;28;20194;-78
2024/02/06 07:36:08;;;;;;;23.75;9.05;;;;;;;;;;5034961;28;20209;-76
2024/02/06 07:38:33;;;;;;;25.75;9.25;;;;;;;;;;5041115;28;20189;-76
2024/02/06 07:40:59;;;;;;;24.85;8.60;;;;;;;;;;5035274;28;20230;-75
2024/02/06 07:43:26;;;;;;;24.15;8.48;;;;;;;;;;5039275;28;20201;-75
2024/02/06 07:45:51;;;;;;;18.60;7.57;;;;;;;;;;5044903;28;20185;-76
2024/02/06 07:48:18;;;;;;;27.10;8.88;;;;;;;;;;5036812;28;20239;-76
2024/02/06 07:50:45;;;;;;;22.65;7.60;;;;;;;;;;5046293;28;20190;-75
2024/02/06 07:53:13;;;;;;;23.35;8.23;;;;;;;;;;5037079;28;20239;-75
2024/02/06 07:55:39;;;;;;;26.38;7.65;;;;;;;;;;5041624;28;20234;-75
2024/02/06 07:58:04;;;;;;;23.08;8.15;;;;;;;;;;5043131;28;20798;-77
2024/02/06 08:00:30;;;;;;;28.58;8.00;;;;;;;;;;5044113;28;20340;-76
2024/02/06 08:02:55;;;;;;;23.08;8.25;;;;;;;;;;5037985;28;20197;-76
2024/02/06 08:05:21;;;;;;;22.27;8.50;;;;;;;;;;5042401;28;20576;-75
2024/02/06 08:07:46;;;;;;;24.15;8.40;;;;;;;;;;5037614;28;20188;-74
2024/02/06 08:10:12;;;;;;;20.45;7.95;;;;;;;;;;5039289;28;20197;-75
2024/02/06 08:12:38;;;;;;;22.13;7.88;;;;;;;;;;5017973;28;20193;-74
2024/02/06 08:15:04;;;;;;;24.25;8.70;;;;;;;;;;5041088;28;20280;-75
2024/02/06 08:17:31;;;;;;;17.65;7.63;;;;;;;;;;5040686;28;20237;-74
2024/02/06 08:19:56;;;;;;;26.33;9.45;;;;;;;;;;5036497;28;20209;-75
2024/02/06 08:22:22;;;;;;;23.17;7.25;;;;;;;;;;5041358;28;20186;-75
2024/02/06 08:24:48;;;;;;;25.60;8.80;;;;;;;;;;5034726;28;20186;-76
2024/02/06 08:27:14;;;;;;;23.95;7.88;;;;;;;;;;5030152;28;20216;-75
2024/02/06 08:29:39;;;;;;;24.70;9.15;;;;;;;;;;5034070;28;20194;-74
2024/02/06 08:32:07;;;;;;;22.45;7.70;;;;;;;;;;5042260;28;20634;-76
2024/02/06 08:34:33;;;;;;;18.02;7.32;;;;;;;;;;5046530;28;20188;-75
2024/02/06 08:36:58;;;;;;;26.90;8.25;;;;;;;;;;5032135;28;20194;-75
2024/02/06 08:39:26;;;;;;;20.65;7.50;;;;;;;;;;5030293;28;20217;-74
2024/02/06 08:41:52;;;;;;;20.25;8.05;;;;;;;;;;5047231;28;20221;-76
2024/02/06 08:44:18;;;;;;;27.30;7.47;;;;;;;;;;5029177;28;20210;-75
2024/02/06 08:46:44;;;;;;;23.35;8.27;;;;;;;;;;5034996;28;20702;-75
2024/02/06 08:49:09;;;;;;;20.10;7.95;;;;;;;;;;5029627;28;20297;-76
2024/02/06 08:51:35;;;;;;;19.95;7.53;;;;;;;;;;5051663;28;20196;-75
2024/02/06 08:54:00;;;;;;;21.20;8.50;;;;;;;;;;5047922;28;20177;-75
2024/02/06 08:56:26;;;;;;;21.25;8.07;;;;;;;;;;5030914;28;20194;-76
2024/02/06 08:58:51;;;;;;;19.50;7.88;;;;;;;;;;5030350;28;20600;-77
2024/02/06 09:01:17;;;;;;;25.33;9.45;;;;;;;;;;5041812;28;20587;-76
2024/02/06 09:03:43;;;;;;;18.48;7.97;;;;;;;;;;5028200;28;20502;-75
2024/02/06 09:06:08;;;;;;;22.15;9.57;;;;;;;;;;5035443;28;20301;-75
2024/02/06 09:08:35;;;;;;;28.02;9.48;;;;;;;;;;5027685;28;20612;-75
2024/02/06 09:11:01;;;;;;;23.95;9.07;;;;;;;;;;5039523;28;20236;-75
2024/02/06 09:13:27;;;;;;;24.08;9.27;;;;;;;;;;5046530;28;20196;-75
2024/02/06 09:15:52;;;;;;;22.48;9.15;;;;;;;;;;5038742;28;20182;-75
2024/02/06 09:18:19;;;;;;;16.35;8.55;;;;;;;;;;5032552;28;20251;-75
2024/02/06 09:20:45;;;;;;;21.60;8.68;;;;;;;;;;5036936;28;20249;-74
2024/02/06 09:23:10;;;;;;;21.10;8.45;;;;;;;;;;5030369;28;20294;-74
2024/02/06 09:25:36;;;;;;;21.25;9.10;;;;;;;;;;5028816;28;20626;-74
2024/02/06 09:28:03;;;;;;;21.10;8.80;;;;;;;;;;5042156;28;20190;-75
2024/02/06 09:30:30;;;;;;;19.63;9.75;;;;;;;;;;5031253;28;20267;-75
2024/02/06 09:32:56;;;;;;;22.95;9.32;;;;;;;;;;5039143;28;20190;-74
2024/02/06 09:35:21;;;;;;;26.42;9.45;;;;;;;;;;5034561;28;20188;-74
2024/02/06 09:37:47;;;;;;;24.40;8.95;;;;;;;;;;5032602;28;20186;-75
2024/02/06 09:40:12;;;;;;;18.98;8.77;;;;;;;;;;5030249;28;20303;-75
2024/02/06 09:42:38;;;;;;;19.23;8.05;;;;;;;;;;5030172;28;20186;-75
2024/02/06 09:45:05;;;;;;;16.88;7.22;;;;;;;;;;5039279;28;20217;-75
2024/02/06 09:47:30;;;;;;;18.88;7.85;;;;;;;;;;5046972;28;20243;-75
2024/02/06 09:49:56;;;;;;;23.45;7.65;;;;;;;;;;5035628;28;20189;-74
2024/02/06 09:52:23;;;;;;;19.80;7.82;;;;;;;;;;5048526;28;20198;-75
2024/02/06 09:54:50;;;;;;;20.17;7.70;;;;;;;;;;5030868;28;20649;-75
2024/02/06 09:57:20;;;;;;;18.27;7.28;;;;;;;;;;5039809;28;20189;-75
2024/02/06 09:59:50;;;;;;;23.60;6.95;;;;;;;;;;5043267;28;20256;-75
2024/02/06 10:02:16;;;;;;;12.80;6.32;;;;;;;;;;5028757;28;20197;-75
2024/02/06 10:04:43;;;;;;;22.85;7.82;;;;;;;;;;5026800;28;20186;-76
2024/02/06 10:07:11;;;;;;;20.10;6.63;;;;;;;;;;5037906;28;20256;-75
2024/02/06 10:09:37;;;;;;;20.23;6.15;;;;;;;;;;5041105;28;20265;-75
2024/02/06 10:12:03;;;;;;;18.75;6.18;;;;;;;;;;5029097;28;20265;-74
2024/02/06 10:14:29;;;;;;;13.73;5.75;;;;;;;;;;5024742;28;20200;-75
2024/02/06 10:16:54;;;;;;;16.58;5.40;;;;;;;;;;5030919;28;20583;-74
2024/02/06 10:19:31;;;;;;;17.88;5.55;;;;;;;;;;5029462;28;20194;-75
2024/02/06 10:21:56;;;;;;;19.88;5.07;;;;;;;;;;5041223;28;20362;-75
2024/02/06 10:24:22;;;;;;;20.50;5.95;;;;;;;;;;5037595;28;20847;-75
2024/02/06 10:27:00;;;;;;;20.58;5.18;;;;;;;;;;5044002;28;20189;-75
2024/02/06 10:29:27;;;;;;;14.05;4.60;;;;;;;;;;5026480;28;20247;-75
2024/02/06 10:31:58;;;;;;;15.93;4.30;;;;;;;;;;5041251;28;20298;-75
2024/02/06 10:34:25;;;;;;;21.55;5.47;;;;;;;;;;5047449;28;20197;-75
2024/02/06 10:36:59;;;;;;;17.63;4.60;;;;;;;;;;5035664;28;20204;-75
2024/02/06 10:39:30;;;;;;;15.35;4.35;;;;;;;;;;5028956;28;20610;-75
2024/02/06 10:42:01;;;;;;;13.10;5.18;;;;;;;;;;5027893;28;20182;-76
2024/02/06 10:44:28;;;;;;;16.58;4.72;;;;;;;;;;5042930;28;20179;-74
2024/02/06 10:47:05;;;;;;;14.38;3.85;;;;;;;;;;5039470;28;20190;-76
2024/02/06 10:49:32;;;;;;;14.52;3.50;;;;;;;;;;5032511;28;20177;-75
2024/02/06 10:52:04;;;;;;;19.98;3.45;;;;;;;;;;5049273;28;20209;-75
2024/02/06 10:54:30;;;;;;;9.80;2.72;;;;;;;;;;5038936;28;20237;-75
2024/02/06 10:57:06;;;;;;;11.57;3.13;;;;;;;;;;5039381;28;20186;-75
2024/02/06 10:59:38;;;;;;;19.48;3.88;;;;;;;;;;5043976;28;20221;-75
2024/02/06 11:02:09;;;;;;;14.48;2.92;;;;;;;;;;5043226;28;20194;-74
2024/02/06 11:04:36;;;;;;;12.88;3.70;;;;;;;;;;5029226;28;20182;-75
2024/02/06 11:07:06;;;;;;;11.90;2.72;;;;;;;;;;5039551;28;20244;-75
2024/02/06 11:09:35;;;;;;;8.45;2.30;;;;;;;;;;5024500;28;20173;-75
2024/02/06 11:12:03;;;;;;;14.60;2.85;;;;;;;;;;5041975;28;20567;-76
2024/02/06 11:14:30;;;;;;;10.85;2.70;;;;;;;;;;5035425;28;20705;-75
2024/02/06 11:16:59;;;;;;;9.48;2.60;;;;;;;;;;5040306;28;20186;-76
2024/02/06 11:19:47;;;;;;;12.52;2.47;;;;;;;;;;5011334;28;20663;-75
2024/02/06 11:22:20;;;;;;;14.60;2.50;;;;;;;;;;5033751;28;20682;-75
2024/02/06 11:24:48;;;;;;;12.57;2.47;;;;;;;;;;5017914;28;20718;-75
2024/02/06 11:27:14;;;;;;;10.18;2.97;;;;;;;;;;5044625;28;20204;-75
2024/02/06 11:29:40;;;;;;;10.55;2.10;;;;;;;;;;5037337;28;20210;-75
2024/02/06 11:32:06;;;;;;;10.02;2.67;;;;;;;;;;5045834;28;20217;-74
2024/02/06 11:34:31;;;;;;;16.30;3.08;;;;;;;;;;5048134;28;20652;-75
2024/02/06 11:37:00;;;;;;;14.05;2.92;;;;;;;;;;5038845;28;20202;-76
2024/02/06 11:39:26;;;;;;;12.55;2.40;;;;;;;;;;5029867;28;20548;-75
2024/02/06 11:41:52;;;;;;;13.77;2.78;;;;;;;;;;5034957;28;20192;-75
2024/02/06 11:44:23;;;;;;;10.93;2.28;;;;;;;;;;5014719;28;20189;-76
2024/02/06 11:46:50;;;;;;;9.02;2.33;;;;;;;;;;5026583;28;20186;-75
2024/02/06 11:49:22;;;;;;;13.52;2.60;;;;;;;;;;5023297;28;20192;-76
2024/02/06 11:51:55;;;;;;;15.30;2.88;;;;;;;;;;5032509;28;20196;-76
2024/02/06 11:54:22;;;;;;;14.55;2.95;;;;;;;;;;5048003;28;20225;-76
2024/02/06 11:56:47;;;;;;;15.32;2.78;;;;;;;;;;5035018;28;20192;-76
2024/02/06 11:59:13;;;;;;;10.75;2.20;;;;;;;;;;5038929;28;20603;-76
2024/02/06 12:01:39;;;;;;;12.88;2.80;;;;;;;;;;5046031;28;20280;-76
2024/02/06 12:04:05;;;;;;;8.70;2.38;;;;;;;;;;5043493;28;20272;-75
2024/02/06 12:06:32;;;;;;;8.93;2.90;;;;;;;;;;5040486;28;20178;-76
2024/02/06 12:09:08;;;;;;;13.05;2.45;;;;;;;;;;5040682;28;20185;-76
2024/02/06 12:11:51;;;;;;;16.17;3.17;;;;;;;;;;5022975;28;20197;-75
2024/02/06 12:14:17;;;;;;;15.02;2.78;;;;;;;;;;5032483;28;20196;-75
2024/02/06 12:16:44;;;;;;;11.25;2.38;;;;;;;;;;5027882;28;20585;-75
2024/02/06 12:19:10;;;;;;;11.95;2.97;;;;;;;;;;5027708;28;20222;-75
2024/02/06 12:21:36;;;;;;;9.60;2.47;;;;;;;;;;5037298;28;20227;-75
2024/02/06 12:24:02;;;;;;;13.25;2.30;;;;;;;;;;5041122;28;20226;-76
2024/02/06 12:26:28;;;;;;;10.98;2.92;;;;;;;;;;5046410;28;20197;-75
2024/02/06 12:29:02;;;;;;;13.73;2.60;;;;;;;;;;5043730;28;20642;-75
2024/02/06 12:31:28;;;;;;;13.43;2.58;;;;;;;;;;5046296;28;20200;-74
2024/02/06 12:33:54;;;;;;;14.52;2.53;;;;;;;;;;5044598;28;20193;-75
2024/02/06 12:36:19;;;;;;;11.77;2.28;;;;;;;;;;5043915;28;20676;-76
2024/02/06 12:38:51;;;;;;;13.35;2.60;;;;;;;;;;5042367;28;20207;-75
2024/02/06 12:41:17;;;;;;;11.05;2.90;;;;;;;;;;5028099;28;20223;-77
2024/02/06 12:43:42;;;;;;;13.48;2.22;;;;;;;;;;5027237;28;20189;-76
2024/02/06 12:46:08;;;;;;;14.77;2.78;;;;;;;;;;5026242;28;20190;-75
2024/02/06 12:48:34;;;;;;;9.43;2.38;;;;;;;;;;5012416;28;20359;-76
2024/02/06 12:51:00;;;;;;;9.70;2.42;;;;;;;;;;5028407;28;20182;-77
2024/02/06 12:53:25;;;;;;;8.20;2.15;;;;;;;;;;5031161;28;20193;-76
2024/02/06 12:55:51;;;;;;;12.00;2.35;;;;;;;;;;5009406;28;20200;-75
2024/02/06 12:58:19;;;;;;;9.60;2.30;;;;;;;;;;5025758;28;20501;-75
2024/02/06 13:00:55;;;;;;;11.07;1.98;;;;;;;;;;5029028;28;20213;-76
2024/02/06 13:03:20;;;;;;;7.45;1.55;;;;;;;;;;5041468;28;20201;-75
2024/02/06 13:05:56;;;;;;;7.13;1.67;;;;;;;;;;5028392;28;20190;-76
2024/02/06 13:08:22;;;;;;;8.65;2.08;;;;;;;;;;5046971;28;20234;-77
2024/02/06 13:10:48;;;;;;;7.47;2.20;;;;;;;;;;5030826;28;20690;-76
2024/02/06 13:13:18;;;;;;;14.02;2.10;;;;;;;;;;5014845;28;20534;-77
2024/02/06 13:15:44;;;;;;;8.02;2.63;;;;;;;;;;5029719;28;20632;-77
2024/02/06 13:18:19;;;;;;;7.70;1.75;;;;;;;;;;5026750;28;20709;-75
2024/02/06 13:20:56;;;;;;;8.05;2.75;;;;;;;;;;5030024;28;20213;-75
2024/02/06 13:23:24;;;;;;;10.27;1.85;;;;;;;;;;5029716;28;20568;-76
2024/02/06 13:25:49;;;;;;;15.95;2.50;;;;;;;;;;5026277;28;20189;-76
2024/02/06 13:28:16;;;;;;;8.65;2.30;;;;;;;;;;5034195;28;20273;-76
2024/02/06 13:30:42;;;;;;;10.10;2.60;;;;;;;;;;5045308;28;20736;-74
2024/02/06 13:33:07;;;;;;;12.02;2.40;;;;;;;;;;5044440;28;20281;-76
2024/02/06 13:35:33;;;;;;;9.63;2.50;;;;;;;;;;5043067;28;20208;-77
2024/02/06 13:38:03;;;;;;;7.78;2.33;;;;;;;;;;5042431;28;20662;-75
2024/02/06 13:40:30;;;;;;;14.60;2.53;;;;;;;;;;5042302;28;20293;-75
2024/02/06 13:42:58;;;;;;;15.05;3.13;;;;;;;;;;5043811;28;20181;-76
2024/02/06 13:45:24;;;;;;;13.27;2.85;;;;;;;;;;5044353;28;20204;-76
2024/02/06 13:47:49;;;;;;;12.70;2.72;;;;;;;;;;5043834;28;20185;-75
2024/02/06 13:50:14;;;;;;;13.88;2.75;;;;;;;;;;5042246;28;20201;-74
2024/02/06 13:52:40;;;;;;;13.90;2.67;;;;;;;;;;5044442;28;20185;-75
2024/02/06 13:55:06;;;;;;;13.50;2.75;;;;;;;;;;5042410;28;20253;-75
2024/02/06 13:57:32;;;;;;;12.55;2.75;;;;;;;;;;5043526;28;20185;-75
2024/02/06 13:59:58;;;;;;;13.45;2.38;;;;;;;;;;5026437;28;20208;-75
2024/02/06 14:02:24;;;;;;;10.50;2.40;;;;;;;;;;5042673;28;20641;-76
2024/02/06 14:04:49;;;;;;;14.57;2.58;;;;;;;;;;5041972;28;20231;-74
2024/02/06 14:07:15;;;;;;;12.07;2.55;;;;;;;;;;5043660;28;20590;-75
2024/02/06 14:09:40;;;;;;;17.17;2.50;;;;;;;;;;5046028;28;20672;-74
2024/02/06 14:12:06;;;;;;;15.05;2.90;;;;;;;;;;5040368;28;20185;-74
2024/02/06 14:14:32;;;;;;;17.98;2.92;;;;;;;;;;5044649;28;20208;-75
2024/02/06 14:16:57;;;;;;;15.80;3.15;;;;;;;;;;5041727;28;20200;-75
2024/02/06 14:19:22;;;;;;;15.75;4.18;;;;;;;;;;5035913;28;20548;-74
2024/02/06 14:21:48;;;;;;;15.27;3.30;;;;;;;;;;5043304;28;20334;-74
2024/02/06 14:24:14;;;;;;;19.70;3.92;;;;;;;;;;5036794;28;20223;-76
2024/02/06 14:26:40;;;;;;;16.45;2.80;;;;;;;;;;5026594;28;20254;-74